sensor_id;sensor_type;location;lat;lon;timestamp;P1;durP1;ratioP1;P2;durP2;ratioP2
24813;SDS011;12904;50.088;11.414;2023-11-18T00:01:08;38.75;;;13.73;;
24813;SDS011;12904;50.088;11.414;2023-11-18T00:03:34;51.45;;;13.75;;
24813;SDS011;12904;50.088;11.414;2023-11-18T00:06:00;20.55;;;12.20;;
24813;SDS011;12904;50.088;11.414;2023-11-18T00:08:25;65.68;;;13.68;;
24813;SDS011;12904;50.088;11.414;2023-11-18T00:10:51;21.50;;;10.95;;
24813;SDS011;12904;50.088;11.414;2023-11-18T00:13:17;36.20;;;14.02;;
24813;SDS011;12904;50.088;11.414;2023-11-18T00:15:42;25.67;;;12.32;;
24813;SDS011;12904;50.088;11.414;2023-11-18T00:18:11;25.08;;;12.65;;
24813;SDS011;12904;50.088;11.414;2023-11-18T00:20:37;19.38;;;13.05;;
24813;SDS011;12904;50.088;11.414;2023-11-18T00:23:02;65.85;;;20.48;;
24813;SDS011;12904;50.088;11.414;2023-11-18T00:25:29;73.78;;;21.58;;
24813;SDS011;12904;50.088;11.414;2023-11-18T00:27:55;100.40;;;27.45;;
24813;SDS011;12904;50.088;11.414;2023-11-18T00:30:21;37.35;;;17.55;;
24813;SDS011;12904;50.088;11.414;2023-11-18T00:32:47;84.57;;;18.45;;
24813;SDS011;12904;50.088;11.414;2023-11-18T00:35:13;91.60;;;13.73;;
24813;SDS011;12904;50.088;11.414;2023-11-18T00:37:39;90.05;;;14.75;;
24813;SDS011;12904;50.088;11.414;2023-11-18T00:40:06;78.30;;;12.50;;
24813;SDS011;12904;50.088;11.414;2023-11-18T00:42:33;86.18;;;13.82;;
24813;SDS011;12904;50.088;11.414;2023-11-18T00:44:58;92.80;;;13.82;;
24813;SDS011;12904;50.088;11.414;2023-11-18T00:47:24;80.93;;;13.43;;
24813;SDS011;12904;50.088;11.414;2023-11-18T00:49:49;48.58;;;11.77;;
24813;SDS011;12904;50.088;11.414;2023-11-18T00:52:17;32.55;;;10.35;;
24813;SDS011;12904;50.088;11.414;2023-11-18T00:54:43;46.25;;;11.50;;
24813;SDS011;12904;50.088;11.414;2023-11-18T00:57:09;33.78;;;11.60;;
24813;SDS011;12904;50.088;11.414;2023-11-18T00:59:34;20.85;;;11.23;;
24813;SDS011;12904;50.088;11.414;2023-11-18T01:02:00;21.58;;;11.95;;
24813;SDS011;12904;50.088;11.414;2023-11-18T01:04:28;14.50;;;11.85;;
24813;SDS011;12904;50.088;11.414;2023-11-18T01:06:54;30.33;;;12.27;;
24813;SDS011;12904;50.088;11.414;2023-11-18T01:09:19;22.00;;;11.63;;
24813;SDS011;12904;50.088;11.414;2023-11-18T01:11:45;34.80;;;12.05;;
24813;SDS011;12904;50.088;11.414;2023-11-18T01:14:10;49.60;;;16.50;;
24813;SDS011;12904;50.088;11.414;2023-11-18T01:16:36;93.35;;;28.98;;
24813;SDS011;12904;50.088;11.414;2023-11-18T01:19:02;88.43;;;27.45;;
24813;SDS011;12904;50.088;11.414;2023-11-18T01:21:28;65.28;;;25.42;;
24813;SDS011;12904;50.088;11.414;2023-11-18T01:23:54;117.05;;;29.73;;
24813;SDS011;12904;50.088;11.414;2023-11-18T01:26:20;90.20;;;24.73;;
24813;SDS011;12904;50.088;11.414;2023-11-18T01:28:46;42.42;;;19.45;;
24813;SDS011;12904;50.088;11.414;2023-11-18T01:31:12;45.42;;;17.77;;
24813;SDS011;12904;50.088;11.414;2023-11-18T01:33:38;32.72;;;17.00;;
24813;SDS011;12904;50.088;11.414;2023-11-18T01:36:08;60.78;;;16.63;;
24813;SDS011;12904;50.088;11.414;2023-11-18T01:38:35;87.63;;;16.98;;
24813;SDS011;12904;50.088;11.414;2023-11-18T01:41:04;81.80;;;16.55;;
24813;SDS011;12904;50.088;11.414;2023-11-18T01:43:30;53.75;;;14.77;;
24813;SDS011;12904;50.088;11.414;2023-11-18T01:45:59;89.78;;;13.65;;
24813;SDS011;12904;50.088;11.414;2023-11-18T01:48:28;105.00;;;14.27;;
24813;SDS011;12904;50.088;11.414;2023-11-18T01:50:55;97.15;;;14.35;;
24813;SDS011;12904;50.088;11.414;2023-11-18T01:53:22;107.00;;;17.02;;
24813;SDS011;12904;50.088;11.414;2023-11-18T01:55:49;149.70;;;16.35;;
24813;SDS011;12904;50.088;11.414;2023-11-18T01:58:15;118.50;;;15.70;;
24813;SDS011;12904;50.088;11.414;2023-11-18T02:00:45;84.50;;;14.88;;
24813;SDS011;12904;50.088;11.414;2023-11-18T02:03:14;68.50;;;14.60;;
24813;SDS011;12904;50.088;11.414;2023-11-18T02:05:40;94.20;;;14.55;;
24813;SDS011;12904;50.088;11.414;2023-11-18T02:08:07;100.72;;;13.23;;
24813;SDS011;12904;50.088;11.414;2023-11-18T02:10:37;82.93;;;13.95;;
24813;SDS011;12904;50.088;11.414;2023-11-18T02:13:23;156.70;;;15.07;;
24813;SDS011;12904;50.088;11.414;2023-11-18T02:15:54;117.70;;;12.30;;
24813;SDS011;12904;50.088;11.414;2023-11-18T02:18:25;119.57;;;16.33;;
24813;SDS011;12904;50.088;11.414;2023-11-18T02:20:52;168.50;;;15.40;;
24813;SDS011;12904;50.088;11.414;2023-11-18T02:23:22;98.07;;;11.73;;
24813;SDS011;12904;50.088;11.414;2023-11-18T02:25:48;117.50;;;12.63;;
24813;SDS011;12904;50.088;11.414;2023-11-18T02:28:14;114.72;;;13.43;;
24813;SDS011;12904;50.088;11.414;2023-11-18T02:30:40;117.30;;;15.30;;
24813;SDS011;12904;50.088;11.414;2023-11-18T02:33:11;102.00;;;13.48;;
24813;SDS011;12904;50.088;11.414;2023-11-18T02:35:55;133.40;;;12.05;;
24813;SDS011;12904;50.088;11.414;2023-11-18T02:38:31;85.65;;;11.95;;
24813;SDS011;12904;50.088;11.414;2023-11-18T02:41:04;68.47;;;10.90;;
24813;SDS011;12904;50.088;11.414;2023-11-18T02:43:34;59.15;;;11.05;;
24813;SDS011;12904;50.088;11.414;2023-11-18T02:46:03;58.50;;;11.80;;
24813;SDS011;12904;50.088;11.414;2023-11-18T02:48:31;41.42;;;13.43;;
24813;SDS011;12904;50.088;11.414;2023-11-18T02:50:57;50.10;;;10.68;;
24813;SDS011;12904;50.088;11.414;2023-11-18T02:53:24;36.83;;;11.38;;
24813;SDS011;12904;50.088;11.414;2023-11-18T02:55:50;84.05;;;15.00;;
24813;SDS011;12904;50.088;11.414;2023-11-18T02:58:19;87.50;;;16.20;;
24813;SDS011;12904;50.088;11.414;2023-11-18T03:00:45;50.90;;;14.50;;
24813;SDS011;12904;50.088;11.414;2023-11-18T03:03:11;105.93;;;17.45;;
24813;SDS011;12904;50.088;11.414;2023-11-18T03:05:37;66.85;;;13.98;;
24813;SDS011;12904;50.088;11.414;2023-11-18T03:08:03;97.25;;;17.90;;
24813;SDS011;12904;50.088;11.414;2023-11-18T03:10:31;85.65;;;15.13;;
24813;SDS011;12904;50.088;11.414;2023-11-18T03:13:00;138.20;;;16.75;;
24813;SDS011;12904;50.088;11.414;2023-11-18T03:15:26;165.88;;;16.27;;
24813;SDS011;12904;50.088;11.414;2023-11-18T03:17:53;207.68;;;14.45;;
24813;SDS011;12904;50.088;11.414;2023-11-18T03:20:20;251.52;;;14.20;;
24813;SDS011;12904;50.088;11.414;2023-11-18T03:22:48;182.05;;;12.30;;
24813;SDS011;12904;50.088;11.414;2023-11-18T03:25:16;131.20;;;11.50;;
24813;SDS011;12904;50.088;11.414;2023-11-18T03:27:42;155.50;;;11.85;;
24813;SDS011;12904;50.088;11.414;2023-11-18T03:30:09;145.82;;;11.70;;
24813;SDS011;12904;50.088;11.414;2023-11-18T03:32:35;180.10;;;13.15;;
24813;SDS011;12904;50.088;11.414;2023-11-18T03:35:02;171.63;;;13.60;;
24813;SDS011;12904;50.088;11.414;2023-11-18T03:37:32;134.85;;;11.85;;
24813;SDS011;12904;50.088;11.414;2023-11-18T03:39:57;86.32;;;10.52;;
24813;SDS011;12904;50.088;11.414;2023-11-18T03:42:23;113.18;;;12.00;;
24813;SDS011;12904;50.088;11.414;2023-11-18T03:44:49;91.53;;;10.75;;
24813;SDS011;12904;50.088;11.414;2023-11-18T03:47:14;97.03;;;10.27;;
24813;SDS011;12904;50.088;11.414;2023-11-18T03:49:41;69.72;;;10.48;;
24813;SDS011;12904;50.088;11.414;2023-11-18T03:52:07;71.75;;;10.45;;
24813;SDS011;12904;50.088;11.414;2023-11-18T03:54:32;99.43;;;11.55;;
24813;SDS011;12904;50.088;11.414;2023-11-18T03:56:58;54.13;;;9.98;;
24813;SDS011;12904;50.088;11.414;2023-11-18T03:59:24;84.13;;;11.35;;
24813;SDS011;12904;50.088;11.414;2023-11-18T04:01:50;51.10;;;10.40;;
24813;SDS011;12904;50.088;11.414;2023-11-18T04:04:16;55.92;;;10.13;;
24813;SDS011;12904;50.088;11.414;2023-11-18T04:06:43;36.08;;;9.38;;
24813;SDS011;12904;50.088;11.414;2023-11-18T04:09:09;42.15;;;8.43;;
24813;SDS011;12904;50.088;11.414;2023-11-18T04:11:35;39.35;;;7.45;;
24813;SDS011;12904;50.088;11.414;2023-11-18T04:14:01;20.40;;;7.57;;
24813;SDS011;12904;50.088;11.414;2023-11-18T04:16:30;35.22;;;8.32;;
24813;SDS011;12904;50.088;11.414;2023-11-18T04:18:55;27.83;;;8.10;;
24813;SDS011;12904;50.088;11.414;2023-11-18T04:21:21;37.38;;;7.93;;
24813;SDS011;12904;50.088;11.414;2023-11-18T04:23:47;35.13;;;8.13;;
24813;SDS011;12904;50.088;11.414;2023-11-18T04:26:12;19.13;;;7.50;;
24813;SDS011;12904;50.088;11.414;2023-11-18T04:28:38;21.60;;;8.13;;
24813;SDS011;12904;50.088;11.414;2023-11-18T04:31:04;33.05;;;8.10;;
24813;SDS011;12904;50.088;11.414;2023-11-18T04:33:31;59.38;;;9.10;;
24813;SDS011;12904;50.088;11.414;2023-11-18T04:35:57;24.00;;;7.93;;
24813;SDS011;12904;50.088;11.414;2023-11-18T04:38:23;26.30;;;7.95;;
24813;SDS011;12904;50.088;11.414;2023-11-18T04:40:50;23.02;;;8.07;;
24813;SDS011;12904;50.088;11.414;2023-11-18T04:43:17;50.78;;;10.38;;
24813;SDS011;12904;50.088;11.414;2023-11-18T04:45:43;34.75;;;8.05;;
24813;SDS011;12904;50.088;11.414;2023-11-18T04:48:09;41.05;;;8.65;;
24813;SDS011;12904;50.088;11.414;2023-11-18T04:50:34;57.40;;;9.35;;
24813;SDS011;12904;50.088;11.414;2023-11-18T04:53:00;59.00;;;8.60;;
24813;SDS011;12904;50.088;11.414;2023-11-18T04:55:28;83.80;;;11.77;;
24813;SDS011;12904;50.088;11.414;2023-11-18T04:57:54;51.45;;;9.25;;
24813;SDS011;12904;50.088;11.414;2023-11-18T05:00:20;83.85;;;11.65;;
24813;SDS011;12904;50.088;11.414;2023-11-18T05:02:46;69.00;;;10.15;;
24813;SDS011;12904;50.088;11.414;2023-11-18T05:05:13;50.40;;;8.73;;
24813;SDS011;12904;50.088;11.414;2023-11-18T05:07:42;73.90;;;9.80;;
24813;SDS011;12904;50.088;11.414;2023-11-18T05:10:08;73.88;;;9.02;;
24813;SDS011;12904;50.088;11.414;2023-11-18T05:12:35;70.97;;;8.75;;
24813;SDS011;12904;50.088;11.414;2023-11-18T05:15:02;51.22;;;8.85;;
24813;SDS011;12904;50.088;11.414;2023-11-18T05:17:31;45.65;;;8.93;;
24813;SDS011;12904;50.088;11.414;2023-11-18T05:19:57;45.85;;;8.05;;
24813;SDS011;12904;50.088;11.414;2023-11-18T05:22:22;64.35;;;9.20;;
24813;SDS011;12904;50.088;11.414;2023-11-18T05:24:48;64.93;;;9.80;;
24813;SDS011;12904;50.088;11.414;2023-11-18T05:27:14;53.13;;;10.50;;
24813;SDS011;12904;50.088;11.414;2023-11-18T05:29:40;75.60;;;10.38;;
24813;SDS011;12904;50.088;11.414;2023-11-18T05:32:07;51.78;;;10.13;;
24813;SDS011;12904;50.088;11.414;2023-11-18T05:34:33;66.57;;;11.15;;
24813;SDS011;12904;50.088;11.414;2023-11-18T05:37:00;89.88;;;11.30;;
24813;SDS011;12904;50.088;11.414;2023-11-18T05:39:26;71.30;;;9.77;;
24813;SDS011;12904;50.088;11.414;2023-11-18T05:41:55;99.38;;;11.43;;
24813;SDS011;12904;50.088;11.414;2023-11-18T05:44:22;70.20;;;11.60;;
24813;SDS011;12904;50.088;11.414;2023-11-18T05:46:56;47.85;;;10.18;;
24813;SDS011;12904;50.088;11.414;2023-11-18T05:49:22;69.72;;;11.68;;
24813;SDS011;12904;50.088;11.414;2023-11-18T05:51:49;48.63;;;9.63;;
24813;SDS011;12904;50.088;11.414;2023-11-18T05:54:15;75.45;;;9.32;;
24813;SDS011;12904;50.088;11.414;2023-11-18T05:56:42;40.05;;;10.00;;
24813;SDS011;12904;50.088;11.414;2023-11-18T05:59:07;69.55;;;13.07;;
24813;SDS011;12904;50.088;11.414;2023-11-18T06:01:33;57.70;;;13.68;;
24813;SDS011;12904;50.088;11.414;2023-11-18T06:03:59;56.83;;;10.48;;
24813;SDS011;12904;50.088;11.414;2023-11-18T06:06:25;59.65;;;10.25;;
24813;SDS011;12904;50.088;11.414;2023-11-18T06:08:52;51.15;;;9.48;;
24813;SDS011;12904;50.088;11.414;2023-11-18T06:11:18;74.63;;;10.20;;
24813;SDS011;12904;50.088;11.414;2023-11-18T06:13:45;52.30;;;10.80;;
24813;SDS011;12904;50.088;11.414;2023-11-18T06:16:12;58.83;;;11.90;;
24813;SDS011;12904;50.088;11.414;2023-11-18T06:18:39;52.00;;;10.40;;
24813;SDS011;12904;50.088;11.414;2023-11-18T06:21:06;55.42;;;9.68;;
24813;SDS011;12904;50.088;11.414;2023-11-18T06:23:32;72.15;;;10.30;;
24813;SDS011;12904;50.088;11.414;2023-11-18T06:25:58;58.55;;;11.15;;
24813;SDS011;12904;50.088;11.414;2023-11-18T06:28:25;42.33;;;9.70;;
24813;SDS011;12904;50.088;11.414;2023-11-18T06:30:53;56.15;;;10.13;;
24813;SDS011;12904;50.088;11.414;2023-11-18T06:33:18;92.88;;;10.80;;
24813;SDS011;12904;50.088;11.414;2023-11-18T06:35:47;85.22;;;11.40;;
24813;SDS011;12904;50.088;11.414;2023-11-18T06:38:13;63.08;;;9.88;;
24813;SDS011;12904;50.088;11.414;2023-11-18T06:40:40;129.98;;;12.00;;
24813;SDS011;12904;50.088;11.414;2023-11-18T06:43:05;105.22;;;11.38;;
24813;SDS011;12904;50.088;11.414;2023-11-18T06:45:36;73.32;;;11.68;;
24813;SDS011;12904;50.088;11.414;2023-11-18T06:48:02;58.17;;;9.80;;
24813;SDS011;12904;50.088;11.414;2023-11-18T06:50:30;97.40;;;11.30;;
24813;SDS011;12904;50.088;11.414;2023-11-18T06:52:57;116.30;;;14.07;;
24813;SDS011;12904;50.088;11.414;2023-11-18T06:55:23;67.78;;;9.98;;
24813;SDS011;12904;50.088;11.414;2023-11-18T06:57:51;34.45;;;9.65;;
24813;SDS011;12904;50.088;11.414;2023-11-18T07:00:17;99.20;;;11.95;;
24813;SDS011;12904;50.088;11.414;2023-11-18T07:02:43;84.05;;;10.90;;
24813;SDS011;12904;50.088;11.414;2023-11-18T07:05:09;70.38;;;10.35;;
24813;SDS011;12904;50.088;11.414;2023-11-18T07:07:35;88.45;;;11.07;;
24813;SDS011;12904;50.088;11.414;2023-11-18T07:10:02;119.90;;;11.82;;
24813;SDS011;12904;50.088;11.414;2023-11-18T07:12:29;76.40;;;11.02;;
24813;SDS011;12904;50.088;11.414;2023-11-18T07:14:58;67.07;;;10.18;;
24813;SDS011;12904;50.088;11.414;2023-11-18T07:17:27;89.10;;;10.38;;
24813;SDS011;12904;50.088;11.414;2023-11-18T07:19:52;59.50;;;10.77;;
24813;SDS011;12904;50.088;11.414;2023-11-18T07:22:19;72.72;;;11.30;;
24813;SDS011;12904;50.088;11.414;2023-11-18T07:24:44;29.02;;;9.60;;
24813;SDS011;12904;50.088;11.414;2023-11-18T07:27:10;68.85;;;12.13;;
24813;SDS011;12904;50.088;11.414;2023-11-18T07:29:36;69.68;;;11.55;;
24813;SDS011;12904;50.088;11.414;2023-11-18T07:32:02;80.50;;;10.85;;
24813;SDS011;12904;50.088;11.414;2023-11-18T07:34:30;85.18;;;11.82;;
24813;SDS011;12904;50.088;11.414;2023-11-18T07:36:58;61.85;;;9.52;;
24813;SDS011;12904;50.088;11.414;2023-11-18T07:39:23;144.45;;;13.30;;
24813;SDS011;12904;50.088;11.414;2023-11-18T07:42:01;94.00;;;12.98;;
24813;SDS011;12904;50.088;11.414;2023-11-18T07:44:26;136.80;;;14.57;;
24813;SDS011;12904;50.088;11.414;2023-11-18T07:46:52;93.65;;;11.60;;
24813;SDS011;12904;50.088;11.414;2023-11-18T07:49:18;81.38;;;12.43;;
24813;SDS011;12904;50.088;11.414;2023-11-18T07:51:44;113.97;;;14.27;;
24813;SDS011;12904;50.088;11.414;2023-11-18T07:54:09;70.45;;;13.90;;
24813;SDS011;12904;50.088;11.414;2023-11-18T07:56:35;81.03;;;14.77;;
24813;SDS011;12904;50.088;11.414;2023-11-18T07:59:01;73.18;;;13.70;;
24813;SDS011;12904;50.088;11.414;2023-11-18T08:01:28;160.95;;;18.27;;
24813;SDS011;12904;50.088;11.414;2023-11-18T08:03:55;139.95;;;12.70;;
24813;SDS011;12904;50.088;11.414;2023-11-18T08:06:21;119.15;;;13.13;;
24813;SDS011;12904;50.088;11.414;2023-11-18T08:08:46;57.20;;;9.60;;
24813;SDS011;12904;50.088;11.414;2023-11-18T08:11:13;67.80;;;9.88;;
24813;SDS011;12904;50.088;11.414;2023-11-18T08:13:39;83.13;;;12.70;;
24813;SDS011;12904;50.088;11.414;2023-11-18T08:16:05;36.67;;;10.40;;
24813;SDS011;12904;50.088;11.414;2023-11-18T08:18:33;41.17;;;10.40;;
24813;SDS011;12904;50.088;11.414;2023-11-18T08:21:00;64.47;;;10.98;;
24813;SDS011;12904;50.088;11.414;2023-11-18T08:23:27;34.95;;;10.10;;
24813;SDS011;12904;50.088;11.414;2023-11-18T08:25:56;26.17;;;8.85;;
24813;SDS011;12904;50.088;11.414;2023-11-18T08:28:22;20.90;;;8.40;;
24813;SDS011;12904;50.088;11.414;2023-11-18T08:30:48;10.90;;;8.15;;
24813;SDS011;12904;50.088;11.414;2023-11-18T08:33:16;12.02;;;7.68;;
24813;SDS011;12904;50.088;11.414;2023-11-18T08:35:42;9.98;;;7.20;;
24813;SDS011;12904;50.088;11.414;2023-11-18T08:38:07;9.93;;;7.18;;
24813;SDS011;12904;50.088;11.414;2023-11-18T08:40:33;8.70;;;7.60;;
24813;SDS011;12904;50.088;11.414;2023-11-18T08:42:59;10.77;;;7.38;;
24813;SDS011;12904;50.088;11.414;2023-11-18T08:45:26;14.10;;;8.07;;
24813;SDS011;12904;50.088;11.414;2023-11-18T08:47:58;11.38;;;8.80;;
24813;SDS011;12904;50.088;11.414;2023-11-18T08:50:36;9.95;;;7.35;;
24813;SDS011;12904;50.088;11.414;2023-11-18T08:53:04;9.02;;;7.75;;
24813;SDS011;12904;50.088;11.414;2023-11-18T08:55:31;10.88;;;7.63;;
24813;SDS011;12904;50.088;11.414;2023-11-18T08:58:13;8.80;;;7.53;;
24813;SDS011;12904;50.088;11.414;2023-11-18T09:00:44;9.48;;;7.97;;
24813;SDS011;12904;50.088;11.414;2023-11-18T09:03:22;8.18;;;7.38;;
24813;SDS011;12904;50.088;11.414;2023-11-18T09:06:02;8.23;;;5.97;;
24813;SDS011;12904;50.088;11.414;2023-11-18T09:08:30;7.80;;;6.97;;
24813;SDS011;12904;50.088;11.414;2023-11-18T09:11:04;7.03;;;6.32;;
24813;SDS011;12904;50.088;11.414;2023-11-18T09:13:31;7.10;;;6.32;;
24813;SDS011;12904;50.088;11.414;2023-11-18T09:15:59;6.53;;;5.82;;
24813;SDS011;12904;50.088;11.414;2023-11-18T09:18:27;6.65;;;6.00;;
24813;SDS011;12904;50.088;11.414;2023-11-18T09:20:55;6.75;;;5.57;;
24813;SDS011;12904;50.088;11.414;2023-11-18T09:23:22;5.95;;;5.32;;
24813;SDS011;12904;50.088;11.414;2023-11-18T09:25:50;6.07;;;5.40;;
24813;SDS011;12904;50.088;11.414;2023-11-18T09:28:18;4.97;;;4.40;;
24813;SDS011;12904;50.088;11.414;2023-11-18T09:30:45;6.00;;;5.35;;
24813;SDS011;12904;50.088;11.414;2023-11-18T09:33:23;6.78;;;6.05;;
24813;SDS011;12904;50.088;11.414;2023-11-18T09:35:59;7.63;;;6.43;;
24813;SDS011;12904;50.088;11.414;2023-11-18T09:38:27;6.30;;;5.80;;
24813;SDS011;12904;50.088;11.414;2023-11-18T09:40:59;6.40;;;5.80;;
24813;SDS011;12904;50.088;11.414;2023-11-18T09:43:31;6.20;;;5.60;;
24813;SDS011;12904;50.088;11.414;2023-11-18T09:46:24;8.00;;;6.63;;
24813;SDS011;12904;50.088;11.414;2023-11-18T09:51:50;5.65;;;5.15;;
24813;SDS011;12904;50.088;11.414;2023-11-18T09:56:51;5.75;;;5.25;;
24813;SDS011;12904;50.088;11.414;2023-11-18T10:02:23;6.82;;;5.05;;
24813;SDS011;12904;50.088;11.414;2023-11-18T10:04:49;7.43;;;5.18;;
24813;SDS011;12904;50.088;11.414;2023-11-18T10:07:22;5.13;;;4.63;;
24813;SDS011;12904;50.088;11.414;2023-11-18T10:09:53;5.07;;;4.57;;
24813;SDS011;12904;50.088;11.414;2023-11-18T10:12:22;4.47;;;4.00;;
24813;SDS011;12904;50.088;11.414;2023-11-18T10:14:49;5.03;;;4.55;;
24813;SDS011;12904;50.088;11.414;2023-11-18T10:17:17;5.40;;;4.13;;
24813;SDS011;12904;50.088;11.414;2023-11-18T10:19:50;4.32;;;4.00;;
24813;SDS011;12904;50.088;11.414;2023-11-18T10:22:22;4.15;;;3.75;;
24813;SDS011;12904;50.088;11.414;2023-11-18T10:24:56;4.88;;;4.43;;
24813;SDS011;12904;50.088;11.414;2023-11-18T10:27:26;4.75;;;4.35;;
24813;SDS011;12904;50.088;11.414;2023-11-18T10:30:11;5.30;;;4.80;;
24813;SDS011;12904;50.088;11.414;2023-11-18T10:32:44;4.60;;;4.20;;
24813;SDS011;12904;50.088;11.414;2023-11-18T10:35:32;4.45;;;4.05;;
24813;SDS011;12904;50.088;11.414;2023-11-18T10:38:01;4.95;;;4.45;;
24813;SDS011;12904;50.088;11.414;2023-11-18T10:40:31;7.45;;;5.63;;
24813;SDS011;12904;50.088;11.414;2023-11-18T10:43:03;4.72;;;4.32;;
24813;SDS011;12904;50.088;11.414;2023-11-18T10:45:34;6.05;;;4.60;;
24813;SDS011;12904;50.088;11.414;2023-11-18T10:48:05;5.18;;;4.78;;
24813;SDS011;12904;50.088;11.414;2023-11-18T10:50:31;5.00;;;4.60;;
24813;SDS011;12904;50.088;11.414;2023-11-18T10:53:00;4.63;;;4.22;;
24813;SDS011;12904;50.088;11.414;2023-11-18T10:55:36;4.60;;;4.15;;
24813;SDS011;12904;50.088;11.414;2023-11-18T10:58:03;4.47;;;4.05;;
24813;SDS011;12904;50.088;11.414;2023-11-18T11:00:52;5.40;;;4.90;;
24813;SDS011;12904;50.088;11.414;2023-11-18T11:03:25;4.70;;;4.30;;
24813;SDS011;12904;50.088;11.414;2023-11-18T11:05:51;5.20;;;4.65;;
24813;SDS011;12904;50.088;11.414;2023-11-18T11:08:19;3.72;;;3.42;;
24813;SDS011;12904;50.088;11.414;2023-11-18T11:10:45;4.35;;;3.95;;
24813;SDS011;12904;50.088;11.414;2023-11-18T11:13:13;4.70;;;4.30;;
24813;SDS011;12904;50.088;11.414;2023-11-18T11:15:43;3.60;;;3.30;;
24813;SDS011;12904;50.088;11.414;2023-11-18T11:18:11;4.28;;;3.45;;
24813;SDS011;12904;50.088;11.414;2023-11-18T11:20:50;4.70;;;4.30;;
24813;SDS011;12904;50.088;11.414;2023-11-18T11:26:30;4.85;;;4.45;;
24813;SDS011;12904;50.088;11.414;2023-11-18T11:29:07;4.90;;;4.47;;
24813;SDS011;12904;50.088;11.414;2023-11-18T11:32:00;4.97;;;4.40;;
24813;SDS011;12904;50.088;11.414;2023-11-18T11:37:43;4.82;;;4.43;;
24813;SDS011;12904;50.088;11.414;2023-11-18T11:40:10;5.13;;;4.63;;
24813;SDS011;12904;50.088;11.414;2023-11-18T11:42:46;4.85;;;4.45;;
24813;SDS011;12904;50.088;11.414;2023-11-18T11:45:22;5.72;;;4.65;;
24813;SDS011;12904;50.088;11.414;2023-11-18T11:47:53;4.43;;;3.95;;
24813;SDS011;12904;50.088;11.414;2023-11-18T11:50:37;4.35;;;3.95;;
24813;SDS011;12904;50.088;11.414;2023-11-18T11:53:15;4.43;;;3.58;;
24813;SDS011;12904;50.088;11.414;2023-11-18T11:55:46;4.25;;;3.55;;
24813;SDS011;12904;50.088;11.414;2023-11-18T11:58:29;3.80;;;3.50;;
24813;SDS011;12904;50.088;11.414;2023-11-18T12:03:48;3.80;;;3.50;;
24813;SDS011;12904;50.088;11.414;2023-11-18T12:06:20;5.50;;;3.53;;
24813;SDS011;12904;50.088;11.414;2023-11-18T12:08:52;4.25;;;3.85;;
24813;SDS011;12904;50.088;11.414;2023-11-18T12:11:18;4.43;;;4.03;;
24813;SDS011;12904;50.088;11.414;2023-11-18T12:14:01;4.00;;;3.42;;
24813;SDS011;12904;50.088;11.414;2023-11-18T12:17:02;4.13;;;3.75;;
24813;SDS011;12904;50.088;11.414;2023-11-18T12:19:37;4.45;;;4.05;;
24813;SDS011;12904;50.088;11.414;2023-11-18T12:22:12;5.80;;;4.30;;
24813;SDS011;12904;50.088;11.414;2023-11-18T12:35:22;6.35;;;4.53;;
24813;SDS011;12904;50.088;11.414;2023-11-18T12:43:15;7.20;;;4.47;;
24813;SDS011;12904;50.088;11.414;2023-11-18T12:46:10;7.88;;;5.05;;
24813;SDS011;12904;50.088;11.414;2023-11-18T12:48:30;5.78;;;5.15;;
24813;SDS011;12904;50.088;11.414;2023-11-18T12:50:57;8.00;;;4.78;;
24813;SDS011;12904;50.088;11.414;2023-11-18T12:53:25;6.75;;;6.15;;
24813;SDS011;12904;50.088;11.414;2023-11-18T12:55:53;6.82;;;6.10;;
24813;SDS011;12904;50.088;11.414;2023-11-18T12:58:19;6.68;;;5.97;;
24813;SDS011;12904;50.088;11.414;2023-11-18T13:00:45;7.22;;;6.53;;
24813;SDS011;12904;50.088;11.414;2023-11-18T13:03:11;6.72;;;6.07;;
24813;SDS011;12904;50.088;11.414;2023-11-18T13:05:40;6.90;;;6.20;;
24813;SDS011;12904;50.088;11.414;2023-11-18T13:08:08;7.32;;;6.63;;
24813;SDS011;12904;50.088;11.414;2023-11-18T13:10:35;7.20;;;6.50;;
24813;SDS011;12904;50.088;11.414;2023-11-18T13:13:01;10.40;;;7.03;;
24813;SDS011;12904;50.088;11.414;2023-11-18T13:15:27;7.50;;;6.80;;
24813;SDS011;12904;50.088;11.414;2023-11-18T13:18:01;10.75;;;6.93;;
24813;SDS011;12904;50.088;11.414;2023-11-18T13:20:31;7.38;;;5.57;;
24813;SDS011;12904;50.088;11.414;2023-11-18T13:23:00;6.20;;;5.70;;
24813;SDS011;12904;50.088;11.414;2023-11-18T13:25:26;4.97;;;4.47;;
24813;SDS011;12904;50.088;11.414;2023-11-18T13:27:51;6.55;;;5.90;;
24813;SDS011;12904;50.088;11.414;2023-11-18T13:30:19;7.95;;;6.03;;
24813;SDS011;12904;50.088;11.414;2023-11-18T13:32:45;6.13;;;5.53;;
24813;SDS011;12904;50.088;11.414;2023-11-18T13:35:11;8.43;;;5.53;;
24813;SDS011;12904;50.088;11.414;2023-11-18T13:37:39;6.28;;;5.75;;
24813;SDS011;12904;50.088;11.414;2023-11-18T13:40:09;6.90;;;5.90;;
24813;SDS011;12904;50.088;11.414;2023-11-18T13:42:35;6.30;;;5.60;;
24813;SDS011;12904;50.088;11.414;2023-11-18T13:45:03;9.15;;;8.25;;
24813;SDS011;12904;50.088;11.414;2023-11-18T13:47:33;7.15;;;6.45;;
24813;SDS011;12904;50.088;11.414;2023-11-18T13:49:58;7.15;;;6.43;;
24813;SDS011;12904;50.088;11.414;2023-11-18T13:52:24;6.97;;;6.28;;
24813;SDS011;12904;50.088;11.414;2023-11-18T13:54:50;8.02;;;7.22;;
24813;SDS011;12904;50.088;11.414;2023-11-18T13:57:22;11.10;;;6.60;;
24813;SDS011;12904;50.088;11.414;2023-11-18T13:59:51;7.28;;;6.57;;
24813;SDS011;12904;50.088;11.414;2023-11-18T14:02:18;7.43;;;6.43;;
24813;SDS011;12904;50.088;11.414;2023-11-18T14:04:44;7.70;;;6.88;;
24813;SDS011;12904;50.088;11.414;2023-11-18T14:07:09;7.78;;;7.03;;
24813;SDS011;12904;50.088;11.414;2023-11-18T14:09:41;7.95;;;7.18;;
24813;SDS011;12904;50.088;11.414;2023-11-18T14:12:07;7.75;;;6.95;;
24813;SDS011;12904;50.088;11.414;2023-11-18T14:14:33;7.50;;;6.78;;
24813;SDS011;12904;50.088;11.414;2023-11-18T14:16:59;8.05;;;7.22;;
24813;SDS011;12904;50.088;11.414;2023-11-18T14:19:26;9.85;;;7.80;;
24813;SDS011;12904;50.088;11.414;2023-11-18T14:21:54;8.15;;;7.35;;
24813;SDS011;12904;50.088;11.414;2023-11-18T14:24:21;9.75;;;7.75;;
24813;SDS011;12904;50.088;11.414;2023-11-18T14:26:55;13.40;;;9.25;;
24813;SDS011;12904;50.088;11.414;2023-11-18T14:29:21;9.27;;;8.38;;
24813;SDS011;12904;50.088;11.414;2023-11-18T14:31:48;11.00;;;8.15;;
24813;SDS011;12904;50.088;11.414;2023-11-18T14:34:14;11.90;;;10.70;;
24813;SDS011;12904;50.088;11.414;2023-11-18T14:36:40;31.67;;;20.42;;
24813;SDS011;12904;50.088;11.414;2023-11-18T14:39:08;14.57;;;13.10;;
24813;SDS011;12904;50.088;11.414;2023-11-18T14:41:39;14.90;;;11.57;;
24813;SDS011;12904;50.088;11.414;2023-11-18T14:44:05;13.98;;;10.13;;
24813;SDS011;12904;50.088;11.414;2023-11-18T14:46:34;10.77;;;9.48;;
24813;SDS011;12904;50.088;11.414;2023-11-18T14:49:00;8.88;;;7.95;;
24813;SDS011;12904;50.088;11.414;2023-11-18T14:51:25;9.77;;;8.88;;
24813;SDS011;12904;50.088;11.414;2023-11-18T14:53:51;9.73;;;8.82;;
24813;SDS011;12904;50.088;11.414;2023-11-18T14:56:17;11.23;;;8.93;;
24813;SDS011;12904;50.088;11.414;2023-11-18T14:58:43;9.02;;;8.23;;